Terminal Aerodrome Forecast
Issued by NWS

Home | Current Version | Previous Version | Text Only | Print | Product List | Glossary On
Versions: 1 2 3 4 5 6 7 8 9 10 11 12 13 14 15 16 17 18 19 20 21 22 23
000
FTUS42 KFFC 020500 RRA
TAFFTY
TAF
KFTY 020543Z 0206/0306 00000KT P6SM SCT150 BKN250
     FM021400 VRB03KT P6SM SCT035 SCT150
     FM021800 27005KT P6SM SCT050 SCT150 PROB30 0219/0223 VRB15G30KT
      5SM TSRA BKN045CB
     FM030100 00000KT P6SM FEW050 BKN120=

USA.gov is the U.S. government's official web portal to all federal, state and local government web resources and services.